< < Back
Terminal Aerodrome Forecast


Current Version              Previous Versions:   1  2  3  4  5  6  7  8  9  

Terminal Aerodrome Forecast

802
FTUS42 KCHS 241700
TAFCHS
TAF
KCHS 241731Z 2418/2518 VRB03KT P6SM SCT250
     FM251400 36006KT P6SM SKC=

Latest METAR

738
SAUS80 KWBC 251100 RRA
MTRCHS
METAR KCHS 251056Z 33003KT 10SM CLR 10/08 A3001 RMK AO2 SLP160
T01000083


USA.gov is the U.S. government's official web portal to all federal, state and local government web resources and services.